sensor_id;sensor_type;location;lat;lon;timestamp;pressure;altitude;pressure_sealevel;temperature;humidity
14838;BME280;7510;59.296;18.106;2022-11-15T00:00:50;101340.63;;;17.24;55.27
14838;BME280;7510;59.296;18.106;2022-11-15T00:03:16;101320.88;;;17.48;54.63
14838;BME280;7510;59.296;18.106;2022-11-15T00:05:42;101330.03;;;17.69;54.13
14838;BME280;7510;59.296;18.106;2022-11-15T00:08:08;101296.44;;;17.73;53.53
14838;BME280;7510;59.296;18.106;2022-11-15T00:10:34;101325.84;;;18.18;52.48
14838;BME280;7510;59.296;18.106;2022-11-15T00:12:59;101313.88;;;18.33;52.47
14838;BME280;7510;59.296;18.106;2022-11-15T00:15:25;101312.69;;;18.10;53.30
14838;BME280;7510;59.296;18.106;2022-11-15T00:17:50;101306.94;;;18.06;53.40
14838;BME280;7510;59.296;18.106;2022-11-15T00:20:19;101315.38;;;17.95;53.70
14838;BME280;7510;59.296;18.106;2022-11-15T00:22:44;101309.69;;;18.11;53.65
14838;BME280;7510;59.296;18.106;2022-11-15T00:25:10;101304.50;;;18.15;53.31
14838;BME280;7510;59.296;18.106;2022-11-15T00:27:35;101303.97;;;18.18;53.35
14838;BME280;7510;59.296;18.106;2022-11-15T00:30:00;101290.88;;;17.58;54.37
14838;BME280;7510;59.296;18.106;2022-11-15T00:32:26;101309.13;;;17.48;55.17
14838;BME280;7510;59.296;18.106;2022-11-15T00:34:51;101292.19;;;17.46;55.24
14838;BME280;7510;59.296;18.106;2022-11-15T00:37:17;101303.25;;;17.71;54.52
14838;BME280;7510;59.296;18.106;2022-11-15T00:39:42;101299.47;;;17.82;54.64
14838;BME280;7510;59.296;18.106;2022-11-15T00:42:08;101297.78;;;16.93;56.13
14838;BME280;7510;59.296;18.106;2022-11-15T00:44:33;101298.91;;;17.29;55.12
14838;BME280;7510;59.296;18.106;2022-11-15T00:46:58;101288.25;;;17.32;55.05
14838;BME280;7510;59.296;18.106;2022-11-15T00:49:24;101280.47;;;17.14;54.78
14838;BME280;7510;59.296;18.106;2022-11-15T00:51:50;101254.72;;;17.00;54.67
14838;BME280;7510;59.296;18.106;2022-11-15T00:54:15;101296.94;;;17.24;54.61
14838;BME280;7510;59.296;18.106;2022-11-15T00:56:40;101311.31;;;17.10;54.32
14838;BME280;7510;59.296;18.106;2022-11-15T00:59:06;101306.13;;;17.44;53.31
14838;BME280;7510;59.296;18.106;2022-11-15T01:01:31;101298.88;;;16.92;54.20
14838;BME280;7510;59.296;18.106;2022-11-15T01:03:57;101288.13;;;16.49;55.36
14838;BME280;7510;59.296;18.106;2022-11-15T01:06:22;101313.09;;;16.94;54.98
14838;BME280;7510;59.296;18.106;2022-11-15T01:08:48;101316.03;;;17.55;53.63
14838;BME280;7510;59.296;18.106;2022-11-15T01:11:13;101319.06;;;17.64;53.14
14838;BME280;7510;59.296;18.106;2022-11-15T01:13:39;101311.53;;;17.96;52.31
14838;BME280;7510;59.296;18.106;2022-11-15T01:16:11;101306.53;;;17.73;52.67
14838;BME280;7510;59.296;18.106;2022-11-15T01:18:37;101305.78;;;17.36;53.85
14838;BME280;7510;59.296;18.106;2022-11-15T01:21:12;101307.84;;;17.19;54.44
14838;BME280;7510;59.296;18.106;2022-11-15T01:23:38;101311.47;;;16.62;55.41
14838;BME280;7510;59.296;18.106;2022-11-15T01:26:07;101300.53;;;17.30;53.76
14838;BME280;7510;59.296;18.106;2022-11-15T01:28:34;101300.53;;;16.93;54.00
14838;BME280;7510;59.296;18.106;2022-11-15T01:31:01;101313.94;;;17.31;53.02
14838;BME280;7510;59.296;18.106;2022-11-15T01:33:28;101313.25;;;17.14;53.33
14838;BME280;7510;59.296;18.106;2022-11-15T01:35:54;101302.00;;;16.74;54.29
14838;BME280;7510;59.296;18.106;2022-11-15T01:38:19;101336.09;;;17.03;54.14
14838;BME280;7510;59.296;18.106;2022-11-15T01:40:45;101337.91;;;17.24;53.47
14838;BME280;7510;59.296;18.106;2022-11-15T01:43:21;101323.38;;;16.82;54.13
14838;BME280;7510;59.296;18.106;2022-11-15T01:45:52;101337.03;;;16.56;55.18
14838;BME280;7510;59.296;18.106;2022-11-15T01:48:20;101333.53;;;16.60;55.31
14838;BME280;7510;59.296;18.106;2022-11-15T01:50:47;101338.19;;;16.60;55.64
14838;BME280;7510;59.296;18.106;2022-11-15T01:53:14;101318.38;;;16.74;54.60
14838;BME280;7510;59.296;18.106;2022-11-15T01:55:40;101299.16;;;16.59;54.68
14838;BME280;7510;59.296;18.106;2022-11-15T01:58:06;101319.19;;;16.75;54.68
14838;BME280;7510;59.296;18.106;2022-11-15T02:00:33;101315.75;;;16.84;54.27
14838;BME280;7510;59.296;18.106;2022-11-15T02:02:58;101305.25;;;16.19;55.55
14838;BME280;7510;59.296;18.106;2022-11-15T02:05:24;101276.22;;;16.60;54.42
14838;BME280;7510;59.296;18.106;2022-11-15T02:07:49;101323.88;;;17.47;52.64
14838;BME280;7510;59.296;18.106;2022-11-15T02:10:21;101316.75;;;16.73;53.69
14838;BME280;7510;59.296;18.106;2022-11-15T02:12:47;101319.06;;;16.91;53.47
14838;BME280;7510;59.296;18.106;2022-11-15T02:15:13;101310.50;;;17.09;52.59
14838;BME280;7510;59.296;18.106;2022-11-15T02:27:03;101323.91;;;14.75;59.91
14838;BME280;7510;59.296;18.106;2022-11-15T02:30:03;101322.81;;;15.42;59.30
14838;BME280;7510;59.296;18.106;2022-11-15T02:32:40;101323.00;;;16.00;56.98
14838;BME280;7510;59.296;18.106;2022-11-15T02:35:20;101329.84;;;16.24;56.21
14838;BME280;7510;59.296;18.106;2022-11-15T02:37:56;101331.78;;;16.49;55.64
14838;BME280;7510;59.296;18.106;2022-11-15T02:43:29;101326.44;;;14.98;59.89
14838;BME280;7510;59.296;18.106;2022-11-15T02:46:22;101303.00;;;15.89;57.61
14838;BME280;7510;59.296;18.106;2022-11-15T02:49:10;101313.69;;;16.17;56.16
14838;BME280;7510;59.296;18.106;2022-11-15T02:51:36;101293.19;;;15.13;58.96
14838;BME280;7510;59.296;18.106;2022-11-15T02:54:02;101299.66;;;14.90;60.60
14838;BME280;7510;59.296;18.106;2022-11-15T02:56:27;101327.16;;;13.78;64.90
14838;BME280;7510;59.296;18.106;2022-11-15T03:07:19;101330.56;;;14.24;63.15
14838;BME280;7510;59.296;18.106;2022-11-15T03:10:09;101324.84;;;15.52;59.38
14838;BME280;7510;59.296;18.106;2022-11-15T03:13:03;101321.06;;;15.53;59.18
14838;BME280;7510;59.296;18.106;2022-11-15T03:15:51;101301.00;;;15.42;57.98
14838;BME280;7510;59.296;18.106;2022-11-15T03:18:26;101334.84;;;15.46;58.50
14838;BME280;7510;59.296;18.106;2022-11-15T03:20:57;101315.47;;;14.77;60.07
14838;BME280;7510;59.296;18.106;2022-11-15T03:23:27;101339.00;;;14.39;61.33
14838;BME280;7510;59.296;18.106;2022-11-15T03:25:54;101345.47;;;14.82;60.23
14838;BME280;7510;59.296;18.106;2022-11-15T03:28:29;101300.88;;;14.99;58.60
14838;BME280;7510;59.296;18.106;2022-11-15T03:30:59;101315.22;;;14.62;59.85
14838;BME280;7510;59.296;18.106;2022-11-15T03:33:27;101330.44;;;14.91;58.98
14838;BME280;7510;59.296;18.106;2022-11-15T03:35:54;101312.91;;;15.36;57.34
14838;BME280;7510;59.296;18.106;2022-11-15T03:38:26;101324.28;;;15.17;58.58
14838;BME280;7510;59.296;18.106;2022-11-15T03:40:58;101329.91;;;14.77;59.58
14838;BME280;7510;59.296;18.106;2022-11-15T03:43:42;101342.22;;;14.96;59.24
14838;BME280;7510;59.296;18.106;2022-11-15T03:46:33;101333.47;;;14.34;61.45
14838;BME280;7510;59.296;18.106;2022-11-15T03:49:09;101350.53;;;14.73;60.17
14838;BME280;7510;59.296;18.106;2022-11-15T03:51:36;101322.41;;;14.24;61.37
14838;BME280;7510;59.296;18.106;2022-11-15T03:54:04;101340.25;;;14.48;61.74
14838;BME280;7510;59.296;18.106;2022-11-15T03:56:30;101344.09;;;15.12;58.95
14838;BME280;7510;59.296;18.106;2022-11-15T03:58:55;101358.22;;;14.21;61.32
14838;BME280;7510;59.296;18.106;2022-11-15T04:01:21;101343.44;;;15.38;58.68
14838;BME280;7510;59.296;18.106;2022-11-15T04:03:46;101333.66;;;14.44;60.83
14838;BME280;7510;59.296;18.106;2022-11-15T04:06:12;101342.22;;;13.85;63.61
14838;BME280;7510;59.296;18.106;2022-11-15T04:08:37;101338.28;;;14.04;62.34
14838;BME280;7510;59.296;18.106;2022-11-15T04:11:02;101313.88;;;15.14;59.15
14838;BME280;7510;59.296;18.106;2022-11-15T04:13:28;101343.56;;;15.48;58.03
14838;BME280;7510;59.296;18.106;2022-11-15T04:15:53;101344.41;;;14.67;59.57
14838;BME280;7510;59.296;18.106;2022-11-15T04:18:19;101362.91;;;15.14;58.40
14838;BME280;7510;59.296;18.106;2022-11-15T04:20:44;101359.09;;;14.98;58.62
14838;BME280;7510;59.296;18.106;2022-11-15T04:23:28;101340.28;;;14.64;58.97
14838;BME280;7510;59.296;18.106;2022-11-15T04:26:18;101351.44;;;15.28;57.87
14838;BME280;7510;59.296;18.106;2022-11-15T04:28:44;101341.03;;;14.32;60.57
14838;BME280;7510;59.296;18.106;2022-11-15T04:31:29;101342.53;;;14.83;58.39
14838;BME280;7510;59.296;18.106;2022-11-15T04:33:54;101338.97;;;14.83;58.68
14838;BME280;7510;59.296;18.106;2022-11-15T04:36:20;101361.72;;;14.61;58.76
14838;BME280;7510;59.296;18.106;2022-11-15T04:39:04;101362.69;;;14.55;59.39
14838;BME280;7510;59.296;18.106;2022-11-15T04:41:30;101371.00;;;14.92;58.54
14838;BME280;7510;59.296;18.106;2022-11-15T04:43:55;101351.50;;;14.68;59.12
14838;BME280;7510;59.296;18.106;2022-11-15T04:46:21;101368.44;;;14.14;60.89
14838;BME280;7510;59.296;18.106;2022-11-15T04:48:47;101354.44;;;14.22;60.66
14838;BME280;7510;59.296;18.106;2022-11-15T04:51:13;101367.78;;;14.95;58.28
14838;BME280;7510;59.296;18.106;2022-11-15T04:53:38;101331.91;;;14.66;58.35
14838;BME280;7510;59.296;18.106;2022-11-15T04:56:04;101349.19;;;14.32;60.23
14838;BME280;7510;59.296;18.106;2022-11-15T04:58:29;101352.00;;;14.97;58.11
14838;BME280;7510;59.296;18.106;2022-11-15T05:00:55;101363.94;;;14.36;60.71
14838;BME280;7510;59.296;18.106;2022-11-15T05:03:20;101328.56;;;14.47;60.12
14838;BME280;7510;59.296;18.106;2022-11-15T05:06:05;101364.34;;;14.56;59.97
14838;BME280;7510;59.296;18.106;2022-11-15T05:08:32;101364.06;;;15.18;57.97
14838;BME280;7510;59.296;18.106;2022-11-15T05:10:57;101357.44;;;14.97;58.44
14838;BME280;7510;59.296;18.106;2022-11-15T05:13:23;101366.97;;;15.44;57.15
14838;BME280;7510;59.296;18.106;2022-11-15T05:15:48;101371.28;;;14.79;58.93
14838;BME280;7510;59.296;18.106;2022-11-15T05:18:13;101366.28;;;15.04;58.77
14838;BME280;7510;59.296;18.106;2022-11-15T05:20:39;101357.28;;;14.87;59.16
14838;BME280;7510;59.296;18.106;2022-11-15T05:23:04;101370.84;;;14.27;61.24
14838;BME280;7510;59.296;18.106;2022-11-15T05:25:30;101362.19;;;14.58;60.57
14838;BME280;7510;59.296;18.106;2022-11-15T05:27:55;101367.44;;;14.75;60.28
14838;BME280;7510;59.296;18.106;2022-11-15T05:30:21;101362.84;;;14.48;60.97
14838;BME280;7510;59.296;18.106;2022-11-15T05:32:47;101341.13;;;14.37;60.46
14838;BME280;7510;59.296;18.106;2022-11-15T05:35:20;101360.47;;;14.24;62.29
14838;BME280;7510;59.296;18.106;2022-11-15T05:37:48;101375.19;;;14.83;59.99
14838;BME280;7510;59.296;18.106;2022-11-15T05:40:13;101380.56;;;15.11;58.87
14838;BME280;7510;59.296;18.106;2022-11-15T05:42:39;101382.22;;;15.12;58.47
14838;BME280;7510;59.296;18.106;2022-11-15T05:45:08;101389.19;;;14.48;60.51
14838;BME280;7510;59.296;18.106;2022-11-15T05:47:35;101372.97;;;15.13;58.03
14838;BME280;7510;59.296;18.106;2022-11-15T05:50:02;101386.41;;;15.03;58.70
14838;BME280;7510;59.296;18.106;2022-11-15T05:52:31;101362.34;;;15.12;57.95
14838;BME280;7510;59.296;18.106;2022-11-15T05:54:59;101384.19;;;15.00;58.59
14838;BME280;7510;59.296;18.106;2022-11-15T05:57:24;101371.91;;;15.14;57.53
14838;BME280;7510;59.296;18.106;2022-11-15T05:59:50;101385.84;;;15.01;58.09
14838;BME280;7510;59.296;18.106;2022-11-15T06:02:16;101404.56;;;14.14;60.34
14838;BME280;7510;59.296;18.106;2022-11-15T06:04:41;101369.16;;;14.37;59.68
14838;BME280;7510;59.296;18.106;2022-11-15T06:07:07;101364.72;;;14.48;58.75
14838;BME280;7510;59.296;18.106;2022-11-15T06:09:32;101386.81;;;13.61;61.29
14838;BME280;7510;59.296;18.106;2022-11-15T06:11:58;101396.50;;;14.08;60.48
14838;BME280;7510;59.296;18.106;2022-11-15T06:14:24;101380.72;;;15.21;56.14
14838;BME280;7510;59.296;18.106;2022-11-15T06:16:49;101372.28;;;14.73;57.67
14838;BME280;7510;59.296;18.106;2022-11-15T06:19:15;101403.50;;;15.15;56.96
14838;BME280;7510;59.296;18.106;2022-11-15T06:21:40;101414.50;;;15.53;55.13
14838;BME280;7510;59.296;18.106;2022-11-15T06:24:06;101354.31;;;14.73;56.61
14838;BME280;7510;59.296;18.106;2022-11-15T06:26:32;101409.09;;;15.09;55.61
14838;BME280;7510;59.296;18.106;2022-11-15T06:28:57;101422.41;;;14.77;57.53
14838;BME280;7510;59.296;18.106;2022-11-15T06:31:23;101407.88;;;14.72;56.21
14838;BME280;7510;59.296;18.106;2022-11-15T06:33:48;101416.72;;;14.00;58.02
14838;BME280;7510;59.296;18.106;2022-11-15T06:36:14;101399.09;;;13.52;57.90
14838;BME280;7510;59.296;18.106;2022-11-15T06:38:42;101402.56;;;14.49;55.75
14838;BME280;7510;59.296;18.106;2022-11-15T06:41:11;101426.31;;;14.54;55.45
14838;BME280;7510;59.296;18.106;2022-11-15T06:43:38;101435.28;;;14.54;55.43
14838;BME280;7510;59.296;18.106;2022-11-15T06:46:05;101401.84;;;14.98;54.81
14838;BME280;7510;59.296;18.106;2022-11-15T06:48:31;101425.00;;;15.00;55.11
14838;BME280;7510;59.296;18.106;2022-11-15T06:50:58;101426.63;;;14.85;54.99
14838;BME280;7510;59.296;18.106;2022-11-15T06:53:25;101428.78;;;14.55;55.94
14838;BME280;7510;59.296;18.106;2022-11-15T06:55:51;101410.69;;;14.10;57.18
14838;BME280;7510;59.296;18.106;2022-11-15T06:58:16;101436.50;;;15.19;53.85
14838;BME280;7510;59.296;18.106;2022-11-15T07:00:42;101436.41;;;14.70;55.33
14838;BME280;7510;59.296;18.106;2022-11-15T07:03:08;101437.59;;;14.73;55.46
14838;BME280;7510;59.296;18.106;2022-11-15T07:05:33;101446.44;;;14.53;54.88
14838;BME280;7510;59.296;18.106;2022-11-15T07:07:59;101445.69;;;13.95;55.97
14838;BME280;7510;59.296;18.106;2022-11-15T07:10:26;101445.31;;;15.09;53.05
14838;BME280;7510;59.296;18.106;2022-11-15T07:12:52;101450.81;;;15.26;52.16
14838;BME280;7510;59.296;18.106;2022-11-15T07:15:22;101456.41;;;14.91;52.72
14838;BME280;7510;59.296;18.106;2022-11-15T07:17:48;101448.69;;;15.00;52.97
14838;BME280;7510;59.296;18.106;2022-11-15T07:20:14;101429.28;;;15.57;51.18
14838;BME280;7510;59.296;18.106;2022-11-15T07:22:43;101435.06;;;15.44;50.90
14838;BME280;7510;59.296;18.106;2022-11-15T07:25:10;101420.81;;;15.75;49.95
14838;BME280;7510;59.296;18.106;2022-11-15T07:27:36;101442.91;;;15.95;49.56
14838;BME280;7510;59.296;18.106;2022-11-15T07:30:02;101432.28;;;16.15;48.93
14838;BME280;7510;59.296;18.106;2022-11-15T07:32:28;101452.22;;;15.61;50.32
14838;BME280;7510;59.296;18.106;2022-11-15T07:34:54;101444.31;;;15.43;50.63
14838;BME280;7510;59.296;18.106;2022-11-15T07:37:19;101448.16;;;16.18;49.18
14838;BME280;7510;59.296;18.106;2022-11-15T07:39:44;101448.94;;;16.35;48.99
14838;BME280;7510;59.296;18.106;2022-11-15T07:42:10;101443.88;;;15.51;50.53
14838;BME280;7510;59.296;18.106;2022-11-15T07:44:54;101441.41;;;15.66;50.96
14838;BME280;7510;59.296;18.106;2022-11-15T07:47:19;101440.84;;;18.27;45.30
14838;BME280;7510;59.296;18.106;2022-11-15T07:49:45;101421.66;;;18.23;44.12
14838;BME280;7510;59.296;18.106;2022-11-15T07:52:12;101461.44;;;15.44;50.38
14838;BME280;7510;59.296;18.106;2022-11-15T07:54:37;101445.47;;;15.31;51.82
14838;BME280;7510;59.296;18.106;2022-11-15T07:57:03;101443.75;;;15.79;50.79
14838;BME280;7510;59.296;18.106;2022-11-15T07:59:29;101456.69;;;14.23;55.07
14838;BME280;7510;59.296;18.106;2022-11-15T08:01:54;101432.94;;;15.18;52.71
14838;BME280;7510;59.296;18.106;2022-11-15T08:04:19;101461.34;;;15.22;52.64
14838;BME280;7510;59.296;18.106;2022-11-15T08:06:45;101456.84;;;14.72;53.83
14838;BME280;7510;59.296;18.106;2022-11-15T08:09:11;101461.28;;;15.34;52.84
14838;BME280;7510;59.296;18.106;2022-11-15T08:11:36;101454.63;;;16.54;49.82
14838;BME280;7510;59.296;18.106;2022-11-15T08:14:02;101466.41;;;18.53;44.76
14838;BME280;7510;59.296;18.106;2022-11-15T08:16:28;101454.16;;;18.75;44.31
14838;BME280;7510;59.296;18.106;2022-11-15T08:18:53;101468.84;;;17.62;46.48
14838;BME280;7510;59.296;18.106;2022-11-15T08:21:21;101464.75;;;16.54;50.03
14838;BME280;7510;59.296;18.106;2022-11-15T08:23:46;101477.94;;;16.24;50.23
14838;BME280;7510;59.296;18.106;2022-11-15T08:26:12;101482.75;;;15.79;51.69
14838;BME280;7510;59.296;18.106;2022-11-15T08:28:38;101463.44;;;15.48;52.34
14838;BME280;7510;59.296;18.106;2022-11-15T08:31:04;101478.53;;;15.39;52.39
14838;BME280;7510;59.296;18.106;2022-11-15T08:33:30;101416.38;;;14.48;53.96
14838;BME280;7510;59.296;18.106;2022-11-15T08:35:57;101472.31;;;15.93;51.29
14838;BME280;7510;59.296;18.106;2022-11-15T08:38:22;101468.97;;;14.92;53.68
14838;BME280;7510;59.296;18.106;2022-11-15T08:40:48;101443.09;;;15.23;52.50
14838;BME280;7510;59.296;18.106;2022-11-15T08:43:13;101482.81;;;15.68;52.02
14838;BME280;7510;59.296;18.106;2022-11-15T08:45:39;101481.84;;;15.41;52.62
14838;BME280;7510;59.296;18.106;2022-11-15T08:48:04;101470.63;;;15.87;51.29
14838;BME280;7510;59.296;18.106;2022-11-15T08:50:31;101471.00;;;15.95;51.04
14838;BME280;7510;59.296;18.106;2022-11-15T08:52:56;101481.28;;;15.56;52.19
14838;BME280;7510;59.296;18.106;2022-11-15T08:55:22;101470.38;;;16.10;50.59
14838;BME280;7510;59.296;18.106;2022-11-15T08:57:47;101471.50;;;15.92;51.38
14838;BME280;7510;59.296;18.106;2022-11-15T09:00:13;101498.53;;;15.61;51.67
14838;BME280;7510;59.296;18.106;2022-11-15T09:02:39;101496.84;;;14.99;53.85
14838;BME280;7510;59.296;18.106;2022-11-15T09:05:06;101484.16;;;15.65;52.22
14838;BME280;7510;59.296;18.106;2022-11-15T09:07:31;101489.84;;;15.97;51.25
14838;BME280;7510;59.296;18.106;2022-11-15T09:09:57;101493.22;;;14.94;53.79
14838;BME280;7510;59.296;18.106;2022-11-15T09:12:24;101523.59;;;15.30;52.33
14838;BME280;7510;59.296;18.106;2022-11-15T09:14:49;101502.56;;;15.42;51.21
14838;BME280;7510;59.296;18.106;2022-11-15T09:17:15;101503.91;;;15.56;51.08
14838;BME280;7510;59.296;18.106;2022-11-15T09:19:41;101514.16;;;15.21;50.97
14838;BME280;7510;59.296;18.106;2022-11-15T09:22:07;101499.28;;;15.57;49.83
14838;BME280;7510;59.296;18.106;2022-11-15T09:24:34;101523.91;;;15.78;49.75
14838;BME280;7510;59.296;18.106;2022-11-15T09:26:59;101509.00;;;15.69;49.72
14838;BME280;7510;59.296;18.106;2022-11-15T09:29:25;101521.88;;;15.73;49.92
14838;BME280;7510;59.296;18.106;2022-11-15T09:31:54;101512.13;;;15.28;50.50
14838;BME280;7510;59.296;18.106;2022-11-15T09:34:19;101525.81;;;14.38;53.13
14838;BME280;7510;59.296;18.106;2022-11-15T09:36:46;101523.31;;;15.15;49.24
14838;BME280;7510;59.296;18.106;2022-11-15T09:39:11;101513.38;;;13.85;52.53
14838;BME280;7510;59.296;18.106;2022-11-15T09:41:45;101535.84;;;15.16;48.51
14838;BME280;7510;59.296;18.106;2022-11-15T09:49:41;101526.19;;;14.97;47.35
14838;BME280;7510;59.296;18.106;2022-11-15T09:52:07;101529.34;;;15.78;46.58
14838;BME280;7510;59.296;18.106;2022-11-15T09:54:37;101511.09;;;15.18;48.02
14838;BME280;7510;59.296;18.106;2022-11-15T09:57:13;101535.19;;;15.54;47.57
14838;BME280;7510;59.296;18.106;2022-11-15T10:03:02;101526.84;;;15.27;48.14
14838;BME280;7510;59.296;18.106;2022-11-15T10:05:30;101527.34;;;15.57;48.25
14838;BME280;7510;59.296;18.106;2022-11-15T10:10:39;101531.16;;;15.56;48.15
14838;BME280;7510;59.296;18.106;2022-11-15T10:13:33;101521.19;;;15.34;48.20
14838;BME280;7510;59.296;18.106;2022-11-15T10:22:35;101531.75;;;16.29;46.89
14838;BME280;7510;59.296;18.106;2022-11-15T10:24:37;101529.63;;;15.32;49.19
14838;BME280;7510;59.296;18.106;2022-11-15T10:27:11;101538.69;;;14.82;50.06
14838;BME280;7510;59.296;18.106;2022-11-15T10:29:43;101459.22;;;14.41;50.22
14838;BME280;7510;59.296;18.106;2022-11-15T10:32:13;101544.44;;;14.97;49.55
14838;BME280;7510;59.296;18.106;2022-11-15T10:34:39;101466.44;;;15.02;48.71
14838;BME280;7510;59.296;18.106;2022-11-15T10:37:05;101529.63;;;15.04;49.06
14838;BME280;7510;59.296;18.106;2022-11-15T10:39:30;101527.75;;;15.21;48.50
14838;BME280;7510;59.296;18.106;2022-11-15T10:41:56;101529.50;;;15.55;48.20
14838;BME280;7510;59.296;18.106;2022-11-15T10:44:27;101536.56;;;16.22;46.27
14838;BME280;7510;59.296;18.106;2022-11-15T10:49:31;101525.59;;;14.28;49.41
14838;BME280;7510;59.296;18.106;2022-11-15T10:52:17;101533.03;;;14.33;49.14
14838;BME280;7510;59.296;18.106;2022-11-15T10:54:48;101528.63;;;15.10;48.08
14838;BME280;7510;59.296;18.106;2022-11-15T10:57:23;101530.69;;;15.31;47.66
14838;BME280;7510;59.296;18.106;2022-11-15T11:00:04;101526.84;;;15.27;47.39
14838;BME280;7510;59.296;18.106;2022-11-15T11:02:34;101532.88;;;13.93;50.08
14838;BME280;7510;59.296;18.106;2022-11-15T11:05:02;101517.81;;;14.71;48.49
14838;BME280;7510;59.296;18.106;2022-11-15T11:07:31;101516.53;;;15.95;46.40
14838;BME280;7510;59.296;18.106;2022-11-15T11:09:58;101519.22;;;15.29;47.33
14838;BME280;7510;59.296;18.106;2022-11-15T11:12:29;101517.72;;;16.20;45.67
14838;BME280;7510;59.296;18.106;2022-11-15T11:14:55;101517.28;;;15.13;47.71
14838;BME280;7510;59.296;18.106;2022-11-15T11:34:08;101544.50;;;14.85;47.75
14838;BME280;7510;59.296;18.106;2022-11-15T11:37:02;101544.25;;;15.59;46.69
14838;BME280;7510;59.296;18.106;2022-11-15T11:39:50;101544.00;;;14.88;47.45
14838;BME280;7510;59.296;18.106;2022-11-15T11:47:42;101529.72;;;14.31;48.91
14838;BME280;7510;59.296;18.106;2022-11-15T11:50:15;101510.06;;;15.07;47.29
14838;BME280;7510;59.296;18.106;2022-11-15T11:55:23;101491.25;;;15.06;47.35
14838;BME280;7510;59.296;18.106;2022-11-15T11:58:16;101539.31;;;15.12;47.34
14838;BME280;7510;59.296;18.106;2022-11-15T12:01:11;101529.16;;;14.57;47.93
14838;BME280;7510;59.296;18.106;2022-11-15T12:11:14;101533.13;;;15.44;47.13
14838;BME280;7510;59.296;18.106;2022-11-15T12:13:40;101526.50;;;15.40;47.13
14838;BME280;7510;59.296;18.106;2022-11-15T12:16:20;101534.94;;;15.39;47.42
14838;BME280;7510;59.296;18.106;2022-11-15T12:18:52;101540.41;;;14.99;48.20
14838;BME280;7510;59.296;18.106;2022-11-15T12:21:40;101533.63;;;15.58;47.24
14838;BME280;7510;59.296;18.106;2022-11-15T12:24:34;101539.72;;;14.92;48.88
14838;BME280;7510;59.296;18.106;2022-11-15T12:29:57;101544.25;;;15.15;47.72
14838;BME280;7510;59.296;18.106;2022-11-15T12:32:28;101535.28;;;15.03;47.59
14838;BME280;7510;59.296;18.106;2022-11-15T12:34:55;101542.84;;;14.84;48.44
14838;BME280;7510;59.296;18.106;2022-11-15T12:37:34;101540.56;;;13.85;50.61
14838;BME280;7510;59.296;18.106;2022-11-15T12:40:18;101530.91;;;14.35;50.03
14838;BME280;7510;59.296;18.106;2022-11-15T12:45:32;101518.16;;;15.02;48.41
14838;BME280;7510;59.296;18.106;2022-11-15T12:51:03;101529.06;;;16.12;46.07
14838;BME280;7510;59.296;18.106;2022-11-15T12:53:30;101532.28;;;15.93;46.74
14838;BME280;7510;59.296;18.106;2022-11-15T13:12:03;101531.06;;;15.51;47.57
14838;BME280;7510;59.296;18.106;2022-11-15T13:14:56;101528.47;;;15.28;47.54
14838;BME280;7510;59.296;18.106;2022-11-15T13:30:49;101521.88;;;15.90;45.91
14838;BME280;7510;59.296;18.106;2022-11-15T13:35:45;101543.50;;;13.95;50.85
14838;BME280;7510;59.296;18.106;2022-11-15T13:38:36;101543.53;;;14.41;49.26
14838;BME280;7510;59.296;18.106;2022-11-15T13:41:23;101519.06;;;13.95;49.73
14838;BME280;7510;59.296;18.106;2022-11-15T13:43:50;101537.59;;;14.55;49.54
14838;BME280;7510;59.296;18.106;2022-11-15T13:46:26;101536.97;;;14.65;49.07
14838;BME280;7510;59.296;18.106;2022-11-15T13:49:12;101540.31;;;15.22;47.82
14838;BME280;7510;59.296;18.106;2022-11-15T13:51:45;101546.00;;;14.54;49.07
14838;BME280;7510;59.296;18.106;2022-11-15T13:56:37;101528.09;;;14.69;49.11
14838;BME280;7510;59.296;18.106;2022-11-15T13:59:28;101551.19;;;15.22;48.42
14838;BME280;7510;59.296;18.106;2022-11-15T14:01:55;101544.78;;;14.61;48.99
14838;BME280;7510;59.296;18.106;2022-11-15T14:04:23;101559.97;;;14.96;48.79
14838;BME280;7510;59.296;18.106;2022-11-15T14:06:56;101552.41;;;15.26;47.93
14838;BME280;7510;59.296;18.106;2022-11-15T14:11:55;101565.09;;;14.81;48.87
14838;BME280;7510;59.296;18.106;2022-11-15T14:14:23;101558.91;;;14.35;50.32
14838;BME280;7510;59.296;18.106;2022-11-15T14:16:57;101570.50;;;14.19;50.73
14838;BME280;7510;59.296;18.106;2022-11-15T14:24:41;101565.84;;;13.97;51.20
14838;BME280;7510;59.296;18.106;2022-11-15T14:27:27;101562.16;;;14.72;49.60
14838;BME280;7510;59.296;18.106;2022-11-15T14:29:53;101571.16;;;14.03;51.68
14838;BME280;7510;59.296;18.106;2022-11-15T14:32:20;101574.91;;;14.82;49.60
14838;BME280;7510;59.296;18.106;2022-11-15T14:34:48;101573.88;;;14.61;49.64
14838;BME280;7510;59.296;18.106;2022-11-15T14:39:45;101554.38;;;14.52;49.40
14838;BME280;7510;59.296;18.106;2022-11-15T14:42:11;101567.53;;;14.44;49.65
14838;BME280;7510;59.296;18.106;2022-11-15T14:44:36;101582.03;;;14.03;51.04
14838;BME280;7510;59.296;18.106;2022-11-15T14:47:01;101576.06;;;13.61;52.67
14838;BME280;7510;59.296;18.106;2022-11-15T14:49:27;101570.56;;;13.90;51.27
14838;BME280;7510;59.296;18.106;2022-11-15T14:51:52;101584.38;;;14.69;49.77
14838;BME280;7510;59.296;18.106;2022-11-15T14:54:18;101546.88;;;14.71;49.30
14838;BME280;7510;59.296;18.106;2022-11-15T14:56:43;101579.97;;;14.90;49.29
14838;BME280;7510;59.296;18.106;2022-11-15T14:59:08;101570.53;;;14.81;49.40
14838;BME280;7510;59.296;18.106;2022-11-15T15:01:34;101564.13;;;14.25;49.97
14838;BME280;7510;59.296;18.106;2022-11-15T15:03:59;101554.50;;;13.77;50.35
14838;BME280;7510;59.296;18.106;2022-11-15T15:06:25;101537.19;;;14.24;48.40